createdAt,value
2023-07-09T00:02:00.213Z,99.90
2023-07-09T00:04:29.697Z,99.90
2023-07-09T00:07:00.760Z,99.90
2023-07-09T00:09:27.840Z,99.90
2023-07-09T00:11:54.976Z,99.90
2023-07-09T00:14:22.119Z,99.90
2023-07-09T00:16:49.881Z,99.90
2023-07-09T00:19:25.324Z,99.90
2023-07-09T00:21:55.793Z,99.90
2023-07-09T00:24:23.292Z,99.90
2023-07-09T00:26:50.939Z,99.90
2023-07-09T00:29:19.515Z,99.90
2023-07-09T00:31:46.743Z,99.90
2023-07-09T00:34:15.915Z,99.90
2023-07-09T00:36:46.675Z,99.90
2023-07-09T00:39:22.360Z,99.90
2023-07-09T00:41:50.955Z,99.90
2023-07-09T00:44:21.131Z,99.90
2023-07-09T00:46:51.214Z,99.90
2023-07-09T00:49:47.722Z,99.90
2023-07-09T00:52:21.916Z,99.90
2023-07-09T00:54:51.588Z,99.90
2023-07-09T00:57:23.596Z,99.90
2023-07-09T01:00:00.622Z,99.90
2023-07-09T01:02:28.211Z,99.90
2023-07-09T01:05:02.084Z,99.90
2023-07-09T01:07:31.360Z,99.90
2023-07-09T01:09:58.607Z,99.90
2023-07-09T01:12:26.780Z,99.90
2023-07-09T01:15:00.026Z,99.90
2023-07-09T01:17:30.805Z,99.90
2023-07-09T01:19:58.277Z,99.90
2023-07-09T01:22:26.044Z,99.90
2023-07-09T01:24:56.234Z,99.90
2023-07-09T01:27:30.963Z,99.90
2023-07-09T01:29:58.586Z,99.90
2023-07-09T01:32:26.172Z,99.90
2023-07-09T01:34:56.693Z,99.90
2023-07-09T01:37:28.655Z,99.90
2023-07-09T01:39:56.225Z,99.90
2023-07-09T01:42:25.540Z,99.90
2023-07-09T01:44:54.997Z,99.90
2023-07-09T01:47:25.549Z,99.90
2023-07-09T01:49:58.658Z,99.90
2023-07-09T01:52:30.993Z,99.90
2023-07-09T01:54:58.825Z,99.90
2023-07-09T01:57:34.443Z,99.90
2023-07-09T02:00:12.039Z,99.90
2023-07-09T02:02:49.791Z,99.90
2023-07-09T02:05:47.411Z,99.90
2023-07-09T02:08:15.654Z,99.90
2023-07-09T02:10:46.099Z,99.90
2023-07-09T02:13:13.857Z,99.90
2023-07-09T02:15:44.515Z,99.90
2023-07-09T02:18:13.591Z,99.90
2023-07-09T02:20:41.020Z,99.90
2023-07-09T02:23:09.561Z,99.90
2023-07-09T02:25:36.625Z,99.90
2023-07-09T02:28:03.771Z,99.90
2023-07-09T02:30:31.488Z,99.90
2023-07-09T02:32:58.647Z,99.90
2023-07-09T02:35:25.769Z,99.90
2023-07-09T02:37:52.889Z,99.90
2023-07-09T02:40:20.030Z,99.90
2023-07-09T02:43:15.146Z,99.90
2023-07-09T02:45:43.108Z,99.90
2023-07-09T02:48:11.333Z,99.90
2023-07-09T02:50:40.649Z,99.90
2023-07-09T02:53:07.719Z,99.90
2023-07-09T02:55:35.956Z,99.90
2023-07-09T02:58:03.123Z,99.90
2023-07-09T03:00:30.252Z,99.90
2023-07-09T03:02:58.135Z,99.90
2023-07-09T03:05:25.243Z,99.90
2023-07-09T03:07:57.566Z,99.90
2023-07-09T03:10:24.708Z,99.90
2023-07-09T03:12:51.776Z,99.90
2023-07-09T03:15:18.915Z,99.90
2023-07-09T03:17:46.080Z,99.90
2023-07-09T03:20:14.508Z,99.90
2023-07-09T03:22:41.626Z,99.90
2023-07-09T03:25:27.559Z,99.90
2023-07-09T03:27:54.707Z,99.90
2023-07-09T03:30:21.776Z,99.90
2023-07-09T03:32:49.701Z,99.90
2023-07-09T03:35:16.825Z,99.90
2023-07-09T03:37:43.921Z,99.90
2023-07-09T03:40:12.088Z,99.90
2023-07-09T03:42:39.115Z,99.90
2023-07-09T03:45:06.727Z,99.90
2023-07-09T03:47:34.005Z,99.90
2023-07-09T03:50:01.137Z,99.90
2023-07-09T03:52:28.208Z,99.90
2023-07-09T03:54:55.285Z,99.90
2023-07-09T03:57:22.360Z,99.90
2023-07-09T03:59:49.423Z,99.90
2023-07-09T04:02:16.590Z,99.90
2023-07-09T04:04:43.686Z,99.90
2023-07-09T04:07:10.779Z,99.90
2023-07-09T04:09:37.882Z,99.90
2023-07-09T04:12:05.379Z,99.90
2023-07-09T04:14:32.799Z,99.90
2023-07-09T04:16:59.988Z,99.90
2023-07-09T04:19:27.270Z,99.90
2023-07-09T04:21:54.388Z,99.90
2023-07-09T04:24:21.789Z,99.90
2023-07-09T04:26:49.182Z,99.90
2023-07-09T04:29:16.415Z,99.90
2023-07-09T04:31:43.616Z,99.90
2023-07-09T04:34:10.745Z,99.90
2023-07-09T04:36:37.905Z,99.90
2023-07-09T04:39:05.710Z,99.90
2023-07-09T04:41:33.128Z,99.90
2023-07-09T04:44:00.404Z,99.90
2023-07-09T04:46:27.507Z,99.90
2023-07-09T04:48:54.569Z,99.90
2023-07-09T04:51:21.646Z,99.90
2023-07-09T04:53:48.717Z,99.90
2023-07-09T04:56:15.821Z,99.90
2023-07-09T04:58:43.010Z,99.90
2023-07-09T05:01:10.240Z,99.90
2023-07-09T05:03:37.748Z,99.90
2023-07-09T05:06:05.098Z,99.90
2023-07-09T05:08:32.739Z,99.90
2023-07-09T05:10:59.811Z,99.90
2023-07-09T05:13:27.072Z,99.90
2023-07-09T05:15:55.049Z,99.90
2023-07-09T05:18:22.265Z,99.90
2023-07-09T05:20:49.533Z,99.90
2023-07-09T05:23:16.914Z,99.90
2023-07-09T05:25:44.039Z,99.90
2023-07-09T05:28:11.091Z,99.90
2023-07-09T05:30:38.173Z,99.90
2023-07-09T05:33:05.356Z,99.90
2023-07-09T05:35:32.670Z,99.90
2023-07-09T05:37:59.823Z,99.90
2023-07-09T05:40:26.895Z,99.90
2023-07-09T05:42:54.048Z,99.90
2023-07-09T05:45:21.097Z,99.90
2023-07-09T05:47:48.244Z,99.90
2023-07-09T05:50:15.390Z,99.90
2023-07-09T05:52:42.534Z,99.90
2023-07-09T05:55:09.817Z,99.90
2023-07-09T05:57:36.920Z,99.90
2023-07-09T06:00:04.349Z,99.90
2023-07-09T06:02:41.093Z,99.90
2023-07-09T06:05:12.236Z,99.90
2023-07-09T06:07:40.256Z,99.90
2023-07-09T06:10:11.628Z,99.90
2023-07-09T06:12:39.141Z,99.90
2023-07-09T06:15:07.196Z,99.90
2023-07-09T06:17:34.334Z,99.90
2023-07-09T06:20:01.407Z,99.90
2023-07-09T06:22:28.522Z,99.90
2023-07-09T06:24:56.103Z,99.90
2023-07-09T06:27:23.265Z,99.90
2023-07-09T06:29:50.332Z,99.90
2023-07-09T06:32:17.436Z,99.90
2023-07-09T06:34:44.558Z,99.90
2023-07-09T06:37:11.588Z,99.90
2023-07-09T06:39:38.792Z,99.90
2023-07-09T06:42:06.209Z,99.90
2023-07-09T06:44:52.272Z,99.90
2023-07-09T06:47:19.451Z,99.90
2023-07-09T06:49:46.629Z,99.90
2023-07-09T06:52:13.714Z,99.90
2023-07-09T06:54:40.821Z,99.90
2023-07-09T06:57:07.919Z,99.90
2023-07-09T06:59:35.013Z,99.90
2023-07-09T07:02:02.078Z,99.90
2023-07-09T07:04:29.221Z,99.90
2023-07-09T07:06:58.105Z,99.90
2023-07-09T07:09:25.247Z,99.90
2023-07-09T07:11:52.325Z,99.90
2023-07-09T07:14:19.576Z,99.90
2023-07-09T07:16:46.792Z,99.90
2023-07-09T07:19:13.983Z,99.90
2023-07-09T07:21:41.141Z,97.60
2023-07-09T07:24:08.334Z,97.10
2023-07-09T07:26:35.639Z,97.10
2023-07-09T07:29:02.773Z,96.70
2023-07-09T07:31:29.886Z,96.80
2023-07-09T07:33:57.476Z,96.80
2023-07-09T07:36:30.831Z,96.70
2023-07-09T07:38:59.304Z,95.90
2023-07-09T07:41:27.139Z,95.50
2023-07-09T07:43:54.336Z,94.90
2023-07-09T07:46:21.454Z,94.00
2023-07-09T07:48:48.636Z,93.00
2023-07-09T07:51:15.714Z,92.80
2023-07-09T07:53:42.913Z,92.50
2023-07-09T07:56:10.003Z,92.70
2023-07-09T07:58:37.312Z,91.90
2023-07-09T08:01:05.161Z,91.40
2023-07-09T08:03:32.610Z,91.10
2023-07-09T08:06:02.386Z,90.10
2023-07-09T08:08:30.268Z,90.70
2023-07-09T08:11:06.812Z,91.00
2023-07-09T08:13:35.740Z,90.30
2023-07-09T08:16:03.250Z,90.00
2023-07-09T08:18:30.686Z,90.10
2023-07-09T08:20:57.875Z,89.30
2023-07-09T08:23:24.958Z,87.60
2023-07-09T08:25:56.514Z,87.90
2023-07-09T08:28:23.936Z,85.60
2023-07-09T08:30:56.979Z,85.80
2023-07-09T08:33:24.960Z,85.70
2023-07-09T08:35:52.901Z,84.90
2023-07-09T08:38:20.328Z,84.70
2023-07-09T08:40:57.603Z,82.90
2023-07-09T08:43:35.701Z,81.50
2023-07-09T08:46:08.799Z,81.60
2023-07-09T08:48:40.178Z,80.70
2023-07-09T08:51:19.221Z,80.10
2023-07-09T08:53:59.028Z,78.80
2023-07-09T08:56:28.145Z,74.70
2023-07-09T08:58:59.877Z,74.10
2023-07-09T09:01:37.546Z,72.80
2023-07-09T09:04:25.435Z,73.60
2023-07-09T09:07:14.329Z,74.40
2023-07-09T09:10:04.233Z,72.60
2023-07-09T09:12:39.012Z,74.40
2023-07-09T09:15:17.319Z,75.20
2023-07-09T09:17:44.759Z,74.90
2023-07-09T09:20:25.097Z,73.80
2023-07-09T09:23:16.170Z,74.20
2023-07-09T09:25:55.275Z,70.00
2023-07-09T09:28:29.006Z,71.20
2023-07-09T09:30:56.170Z,69.90
2023-07-09T09:33:23.265Z,67.70
2023-07-09T09:35:50.850Z,67.20
2023-07-09T09:38:23.767Z,66.60
2023-07-09T09:40:50.935Z,66.10
2023-07-09T09:43:21.069Z,66.10
2023-07-09T09:45:50.640Z,65.20
2023-07-09T09:48:34.302Z,64.40
2023-07-09T09:51:06.644Z,64.50
2023-07-09T09:53:41.499Z,63.70
2023-07-09T09:56:16.552Z,62.80
2023-07-09T09:58:43.759Z,61.30
2023-07-09T10:01:18.964Z,60.00
2023-07-09T10:03:50.472Z,57.10
2023-07-09T10:06:47.276Z,56.80
2023-07-09T10:09:33.542Z,54.90
2023-07-09T10:12:30.840Z,54.90
2023-07-09T10:15:06.917Z,53.40
2023-07-09T10:17:43.062Z,52.90
2023-07-09T10:20:29.950Z,52.80
2023-07-09T10:23:13.525Z,52.70
2023-07-09T10:25:56.102Z,53.20
2023-07-09T10:28:23.581Z,53.90
2023-07-09T10:31:09.687Z,53.90
2023-07-09T10:33:56.393Z,54.10
2023-07-09T10:36:37.619Z,53.30
2023-07-09T10:39:18.803Z,53.10
2023-07-09T10:41:50.996Z,52.20
2023-07-09T10:44:27.109Z,52.20
2023-07-09T10:47:00.806Z,52.30
2023-07-09T10:49:34.323Z,51.50
2023-07-09T10:52:26.700Z,51.70
2023-07-09T10:55:09.731Z,53.20
2023-07-09T10:58:08.016Z,56.00
2023-07-09T11:00:38.452Z,54.60
2023-07-09T11:03:31.161Z,55.50
2023-07-09T11:05:58.508Z,59.00
2023-07-09T11:08:35.703Z,55.80
2023-07-09T11:11:25.278Z,55.80
2023-07-09T11:13:58.525Z,54.70
2023-07-09T11:16:32.795Z,55.40
2023-07-09T11:19:02.692Z,57.10
2023-07-09T11:21:30.309Z,57.10
2023-07-09T11:24:03.830Z,53.50
2023-07-09T11:26:33.936Z,55.40
2023-07-09T11:29:06.857Z,56.80
2023-07-09T11:31:40.132Z,55.60
2023-07-09T11:34:18.385Z,56.30
2023-07-09T11:36:56.375Z,56.10
2023-07-09T11:39:32.038Z,56.00
2023-07-09T11:41:59.920Z,56.30
2023-07-09T11:44:33.754Z,53.00
2023-07-09T11:47:22.535Z,51.00
2023-07-09T11:50:01.093Z,50.90
2023-07-09T11:52:51.231Z,50.70
2023-07-09T11:55:28.527Z,49.80
2023-07-09T11:58:01.666Z,49.00
2023-07-09T12:00:37.953Z,48.80
2023-07-09T12:03:06.424Z,47.30
2023-07-09T12:05:34.228Z,48.60
2023-07-09T12:08:02.612Z,48.70
2023-07-09T12:10:34.291Z,48.20
2023-07-09T12:13:02.393Z,48.90
2023-07-09T12:15:32.946Z,49.00
2023-07-09T12:18:04.121Z,48.30
2023-07-09T12:20:36.492Z,48.90
2023-07-09T12:23:25.531Z,48.30
2023-07-09T12:25:54.224Z,47.80
2023-07-09T12:28:22.975Z,49.60
2023-07-09T12:30:52.965Z,53.70
2023-07-09T12:33:22.717Z,52.40
2023-07-09T12:35:55.703Z,50.10
2023-07-09T12:38:25.997Z,48.00
2023-07-09T12:40:55.047Z,47.80
2023-07-09T12:43:28.006Z,47.50
2023-07-09T12:45:56.220Z,47.90
2023-07-09T12:48:26.565Z,46.70
2023-07-09T12:50:58.276Z,47.00
2023-07-09T12:53:27.761Z,46.20
2023-07-09T12:56:00.641Z,46.50
2023-07-09T12:58:32.114Z,46.40
2023-07-09T13:01:01.686Z,46.30
2023-07-09T13:03:31.593Z,45.50
2023-07-09T13:06:06.251Z,44.80
2023-07-09T13:08:41.660Z,44.50
2023-07-09T13:11:19.987Z,44.70
2023-07-09T13:14:03.143Z,44.80
2023-07-09T13:16:30.499Z,44.90
2023-07-09T13:18:57.594Z,44.90
2023-07-09T13:21:24.828Z,44.90
2023-07-09T13:23:54.034Z,45.10
2023-07-09T13:26:21.173Z,44.60
2023-07-09T13:28:48.754Z,43.90
2023-07-09T13:31:19.104Z,43.60
2023-07-09T13:33:56.258Z,43.40
2023-07-09T13:36:23.476Z,43.90
2023-07-09T13:38:51.641Z,43.60
2023-07-09T13:41:23.081Z,43.60
2023-07-09T13:43:50.636Z,44.60
2023-07-09T13:46:18.167Z,43.60
2023-07-09T13:48:47.375Z,44.60
2023-07-09T13:51:23.584Z,44.50
2023-07-09T13:53:54.288Z,44.10
2023-07-09T13:56:21.712Z,45.00
2023-07-09T13:58:50.619Z,44.80
2023-07-09T14:01:22.612Z,43.40
2023-07-09T14:03:50.282Z,43.00
2023-07-09T14:06:19.022Z,42.30
2023-07-09T14:08:46.147Z,42.40
2023-07-09T14:11:15.656Z,41.60
2023-07-09T14:13:43.256Z,41.50
2023-07-09T14:16:16.380Z,43.20
2023-07-09T14:18:43.695Z,42.90
2023-07-09T14:21:21.964Z,41.30
2023-07-09T14:23:49.127Z,42.10
2023-07-09T14:26:16.205Z,42.00
2023-07-09T14:28:43.299Z,42.80
2023-07-09T14:31:29.333Z,41.70
2023-07-09T14:34:17.875Z,41.90
2023-07-09T14:36:45.029Z,40.50
2023-07-09T14:39:12.325Z,40.60
2023-07-09T14:41:39.650Z,42.10
2023-07-09T14:44:23.437Z,41.30
2023-07-09T14:46:52.005Z,41.10
2023-07-09T14:49:20.181Z,42.60
2023-07-09T14:51:49.039Z,41.30
2023-07-09T14:54:27.623Z,41.70
2023-07-09T14:56:56.148Z,42.30
2023-07-09T14:59:25.614Z,41.50
2023-07-09T15:01:53.775Z,41.70
2023-07-09T15:04:27.163Z,40.80
2023-07-09T15:06:54.784Z,41.00
2023-07-09T15:09:24.053Z,40.90
2023-07-09T15:11:56.892Z,41.40
2023-07-09T15:14:26.050Z,41.00
2023-07-09T15:16:56.414Z,44.00
2023-07-09T15:19:29.830Z,44.80
2023-07-09T15:21:57.102Z,44.90
2023-07-09T15:24:31.512Z,42.70
2023-07-09T15:27:01.117Z,41.20
2023-07-09T15:29:29.809Z,41.50
2023-07-09T15:31:56.898Z,40.30
2023-07-09T15:34:24.534Z,39.70
2023-07-09T15:36:53.315Z,41.20
2023-07-09T15:39:21.691Z,40.30
2023-07-09T15:41:49.266Z,41.80
2023-07-09T15:44:20.500Z,41.80
2023-07-09T15:46:57.869Z,41.30
2023-07-09T15:49:25.530Z,40.20
2023-07-09T15:51:52.760Z,41.10
2023-07-09T15:54:22.433Z,40.30
2023-07-09T15:56:51.269Z,39.80
2023-07-09T15:59:34.789Z,39.90
2023-07-09T16:02:04.090Z,42.40
2023-07-09T16:04:31.232Z,43.20
2023-07-09T16:06:58.424Z,41.00
2023-07-09T16:09:25.586Z,42.80
2023-07-09T16:11:54.288Z,44.80
2023-07-09T16:14:33.511Z,45.40
2023-07-09T16:17:02.532Z,44.40
2023-07-09T16:19:31.630Z,42.50
2023-07-09T16:22:08.666Z,42.40
2023-07-09T16:24:39.994Z,43.10
2023-07-09T16:27:09.454Z,44.50
2023-07-09T16:29:38.128Z,45.30
2023-07-09T16:32:05.868Z,45.10
2023-07-09T16:34:33.523Z,46.50
2023-07-09T16:37:01.702Z,48.60
2023-07-09T16:39:30.604Z,51.70
2023-07-09T16:41:58.746Z,52.80
2023-07-09T16:44:26.787Z,53.80
2023-07-09T16:46:55.730Z,49.70
2023-07-09T16:49:32.678Z,45.70
2023-07-09T16:52:00.183Z,48.20
2023-07-09T16:54:27.616Z,47.10
2023-07-09T16:56:56.354Z,49.90
2023-07-09T16:59:23.878Z,50.80
2023-07-09T17:01:51.632Z,51.00
2023-07-09T17:04:31.500Z,48.90
2023-07-09T17:06:58.677Z,51.80
2023-07-09T17:09:29.076Z,52.30
2023-07-09T17:11:59.930Z,49.70
2023-07-09T17:14:27.568Z,50.70
2023-07-09T17:16:54.638Z,53.60
2023-07-09T17:19:21.733Z,56.00
2023-07-09T17:21:51.501Z,53.70
2023-07-09T17:24:27.584Z,55.10
2023-07-09T17:26:56.110Z,56.70
2023-07-09T17:29:23.310Z,56.80
2023-07-09T17:31:52.765Z,58.20
2023-07-09T17:34:19.869Z,57.20
2023-07-09T17:36:47.981Z,59.60
2023-07-09T17:39:23.285Z,59.90
2023-07-09T17:41:51.993Z,61.70
2023-07-09T17:44:21.485Z,61.20
2023-07-09T17:46:50.806Z,61.50
2023-07-09T17:49:31.287Z,60.90
2023-07-09T17:51:59.308Z,62.00
2023-07-09T17:54:27.642Z,62.00
2023-07-09T17:56:57.111Z,64.20
2023-07-09T17:59:27.933Z,67.60
2023-07-09T18:02:16.477Z,68.60
2023-07-09T18:04:43.884Z,68.50
2023-07-09T18:07:24.078Z,72.00
2023-07-09T18:09:52.045Z,74.60
2023-07-09T18:12:23.012Z,78.00
2023-07-09T18:14:52.421Z,78.80
2023-07-09T18:17:24.424Z,88.80
2023-07-09T18:19:51.754Z,91.00
2023-07-09T18:22:21.190Z,91.40
2023-07-09T18:24:49.827Z,93.20
2023-07-09T18:27:17.899Z,93.10
2023-07-09T18:29:48.594Z,93.20
2023-07-09T18:32:24.696Z,92.80
2023-07-09T18:35:16.822Z,92.90
2023-07-09T18:37:44.030Z,92.30
2023-07-09T18:40:11.753Z,91.90
2023-07-09T18:42:38.884Z,91.40
2023-07-09T18:45:06.803Z,92.40
2023-07-09T18:47:33.926Z,93.40
2023-07-09T18:50:01.272Z,92.80
2023-07-09T18:52:30.322Z,93.00
2023-07-09T18:54:57.505Z,94.20
2023-07-09T18:57:24.661Z,95.50
2023-07-09T18:59:51.733Z,93.60
2023-07-09T19:02:24.370Z,92.90
2023-07-09T19:04:55.146Z,93.40
2023-07-09T19:07:22.909Z,93.00
2023-07-09T19:09:54.879Z,92.70
2023-07-09T19:12:22.042Z,93.50
2023-07-09T19:14:49.112Z,93.40
2023-07-09T19:17:21.789Z,93.80
2023-07-09T19:19:50.044Z,92.70
2023-07-09T19:22:17.176Z,91.80
2023-07-09T19:24:45.316Z,93.00
2023-07-09T19:27:13.576Z,93.70
2023-07-09T19:29:41.961Z,92.80
2023-07-09T19:32:27.019Z,94.30
2023-07-09T19:34:55.604Z,94.90
2023-07-09T19:37:26.427Z,95.60
2023-07-09T19:39:53.528Z,95.90
2023-07-09T19:42:23.304Z,96.60
2023-07-09T19:44:51.311Z,96.10
2023-07-09T19:47:34.965Z,96.30
2023-07-09T19:50:10.224Z,96.50
2023-07-09T19:52:37.345Z,97.40
2023-07-09T19:55:16.305Z,97.00
2023-07-09T19:57:43.474Z,97.80
2023-07-09T20:00:11.105Z,97.30
2023-07-09T20:02:42.744Z,96.90
2023-07-09T20:05:32.248Z,96.90
2023-07-09T20:08:11.238Z,97.60
2023-07-09T20:10:38.390Z,97.30
2023-07-09T20:13:05.543Z,97.80
2023-07-09T20:15:32.667Z,97.90
2023-07-09T20:18:01.312Z,97.50
2023-07-09T20:20:29.340Z,97.20
2023-07-09T20:22:56.419Z,97.00
2023-07-09T20:25:25.384Z,97.80
2023-07-09T20:27:53.837Z,97.90
2023-07-09T20:30:22.007Z,98.30
2023-07-09T20:32:51.176Z,98.90
2023-07-09T20:35:24.936Z,98.90
2023-07-09T20:37:52.463Z,99.90
2023-07-09T20:40:22.660Z,99.90
2023-07-09T20:42:54.418Z,99.90
2023-07-09T20:45:24.181Z,99.90
2023-07-09T20:47:53.388Z,99.90
2023-07-09T20:50:28.844Z,99.90
2023-07-09T20:52:56.080Z,99.90
2023-07-09T20:55:23.222Z,99.90
2023-07-09T20:57:50.785Z,99.90
2023-07-09T21:00:20.591Z,99.90
2023-07-09T21:02:49.692Z,99.90
2023-07-09T21:05:18.845Z,99.90
2023-07-09T21:07:51.341Z,99.90
2023-07-09T21:10:24.772Z,99.90
2023-07-09T21:12:53.029Z,99.90
2023-07-09T21:15:29.565Z,99.90
2023-07-09T21:17:56.759Z,99.90
2023-07-09T21:20:31.324Z,99.90
2023-07-09T21:22:58.558Z,99.90
2023-07-09T21:25:27.263Z,99.90
2023-07-09T21:27:55.216Z,99.90
2023-07-09T21:30:23.379Z,99.90
2023-07-09T21:32:51.129Z,99.90
2023-07-09T21:35:28.509Z,99.90
2023-07-09T21:37:57.917Z,99.90
2023-07-09T21:40:27.037Z,99.90
2023-07-09T21:42:55.353Z,99.90
2023-07-09T21:45:26.971Z,99.90
2023-07-09T21:47:54.643Z,99.90
2023-07-09T21:50:22.516Z,99.90
2023-07-09T21:52:50.086Z,99.90
2023-07-09T21:55:22.610Z,99.90
2023-07-09T21:57:50.504Z,99.90
2023-07-09T22:00:21.920Z,99.90
2023-07-09T22:02:50.736Z,99.90
2023-07-09T22:05:26.503Z,99.90
2023-07-09T22:07:54.933Z,99.90
2023-07-09T22:10:29.138Z,99.90
2023-07-09T22:12:59.028Z,99.90
2023-07-09T22:15:28.500Z,99.90
2023-07-09T22:17:55.851Z,99.90
2023-07-09T22:20:27.303Z,99.90
2023-07-09T22:22:55.817Z,99.90
2023-07-09T22:25:28.535Z,99.90
2023-07-09T22:27:56.874Z,99.90
2023-07-09T22:30:26.612Z,99.90
2023-07-09T22:32:57.195Z,99.90
2023-07-09T22:35:27.092Z,99.90
2023-07-09T22:37:54.382Z,99.90
2023-07-09T22:40:25.892Z,99.90
2023-07-09T22:42:54.993Z,99.90
2023-07-09T22:45:26.406Z,99.90
2023-07-09T22:48:01.639Z,99.90
2023-07-09T22:50:34.803Z,99.90
2023-07-09T22:53:03.000Z,99.90
2023-07-09T22:55:35.174Z,99.90
2023-07-09T22:58:07.533Z,99.90
2023-07-09T23:00:42.949Z,99.90
2023-07-09T23:03:19.356Z,99.90
2023-07-09T23:05:48.135Z,99.90
2023-07-09T23:08:27.256Z,99.90
2023-07-09T23:11:00.907Z,99.90
2023-07-09T23:13:36.348Z,99.90
2023-07-09T23:16:03.954Z,99.90
2023-07-09T23:18:31.820Z,99.90
2023-07-09T23:20:59.519Z,99.90
2023-07-09T23:23:26.656Z,99.90
2023-07-09T23:25:56.745Z,99.90
2023-07-09T23:28:25.390Z,99.90
2023-07-09T23:30:53.129Z,99.90
2023-07-09T23:33:32.379Z,99.90
2023-07-09T23:36:01.250Z,99.90
2023-07-09T23:38:30.481Z,99.90
2023-07-09T23:40:59.420Z,99.90
2023-07-09T23:43:31.996Z,99.90
2023-07-09T23:45:59.158Z,99.90
2023-07-09T23:48:30.530Z,99.90
2023-07-09T23:51:02.531Z,99.90
2023-07-09T23:53:32.233Z,99.90
2023-07-09T23:56:02.197Z,99.90
2023-07-09T23:58:35.825Z,99.90
